createdAt,value
2023-02-01T00:00:56.303Z,0.00
2023-02-01T00:01:56.307Z,0.00
2023-02-01T00:02:56.358Z,0.00
2023-02-01T00:03:56.333Z,0.00
2023-02-01T00:04:56.292Z,0.00
2023-02-01T00:05:56.256Z,0.00
2023-02-01T00:06:56.280Z,0.00
2023-02-01T00:07:56.405Z,0.00
2023-02-01T00:08:56.222Z,0.00
2023-02-01T00:09:56.227Z,0.00
2023-02-01T00:10:56.199Z,0.00
2023-02-01T00:11:56.252Z,0.00
2023-02-01T00:12:56.235Z,0.00
2023-02-01T00:13:56.168Z,0.00
2023-02-01T00:14:56.175Z,0.00
2023-02-01T00:15:56.162Z,0.00
2023-02-01T00:16:56.160Z,0.00
2023-02-01T00:17:56.144Z,0.00
2023-02-01T00:18:56.263Z,0.00
2023-02-01T00:19:56.974Z,0.00
2023-02-01T00:20:56.094Z,0.00
2023-02-01T00:21:56.114Z,0.00
2023-02-01T00:22:56.082Z,0.00
2023-02-01T00:23:56.061Z,0.00
2023-02-01T00:24:56.054Z,0.00
2023-02-01T00:25:56.093Z,0.00
2023-02-01T00:26:56.117Z,0.00
2023-02-01T00:27:56.013Z,0.00
2023-02-01T00:28:56.063Z,0.00
2023-02-01T00:29:56.011Z,0.00
2023-02-01T00:30:56.104Z,0.00
2023-02-01T00:31:56.092Z,0.00
2023-02-01T00:32:56.011Z,0.00
2023-02-01T00:33:55.973Z,0.00
2023-02-01T00:34:55.972Z,0.00
2023-02-01T00:35:55.946Z,0.00
2023-02-01T00:36:55.960Z,0.00
2023-02-01T00:37:55.935Z,0.00
2023-02-01T00:38:55.924Z,0.00
2023-02-01T00:39:55.986Z,0.00
2023-02-01T00:40:55.916Z,0.00
2023-02-01T00:41:55.890Z,0.00
2023-02-01T00:42:55.863Z,0.00
2023-02-01T00:43:55.856Z,0.00
2023-02-01T00:44:55.889Z,0.00
2023-02-01T00:45:55.839Z,0.00
2023-02-01T00:46:55.968Z,0.00
2023-02-01T00:47:55.805Z,0.00
2023-02-01T00:48:55.836Z,0.00
2023-02-01T00:49:55.786Z,0.00
2023-02-01T00:50:55.774Z,0.00
2023-02-01T00:51:55.768Z,0.00
2023-02-01T00:52:55.778Z,0.00
2023-02-01T00:53:55.759Z,0.00
2023-02-01T00:54:55.747Z,0.00
2023-02-01T00:55:55.714Z,0.00
2023-02-01T00:56:55.854Z,0.00
2023-02-01T00:57:55.731Z,0.00
2023-02-01T00:58:55.701Z,0.00
2023-02-01T00:59:55.681Z,0.00
2023-02-01T01:00:55.784Z,0.00
2023-02-01T01:01:55.767Z,0.00
2023-02-01T01:02:55.647Z,0.00
2023-02-01T01:03:55.684Z,0.00
2023-02-01T01:04:55.912Z,0.00
2023-02-01T01:05:55.623Z,0.00
2023-02-01T01:06:55.689Z,0.00
2023-02-01T01:07:55.592Z,0.00
2023-02-01T01:08:55.648Z,0.00
2023-02-01T01:09:55.583Z,0.00
2023-02-01T01:10:55.611Z,0.00
2023-02-01T01:11:55.584Z,0.00
2023-02-01T01:12:55.581Z,0.00
2023-02-01T01:13:55.527Z,0.00
2023-02-01T01:14:55.546Z,0.00
2023-02-01T01:15:55.520Z,0.00
2023-02-01T01:16:55.532Z,0.00
2023-02-01T01:17:55.488Z,0.00
2023-02-01T01:18:55.533Z,0.00
2023-02-01T01:19:55.463Z,0.00
2023-02-01T01:20:55.470Z,0.00
2023-02-01T01:21:55.504Z,0.00
2023-02-01T01:22:55.437Z,0.00
2023-02-01T01:23:55.443Z,0.00
2023-02-01T01:24:55.408Z,0.00
2023-02-01T01:25:55.448Z,0.00
2023-02-01T01:26:55.485Z,0.00
2023-02-01T01:27:55.389Z,0.00
2023-02-01T01:28:55.468Z,0.00
2023-02-01T01:29:55.353Z,0.00
2023-02-01T01:30:55.397Z,0.00
2023-02-01T01:31:55.449Z,0.00
2023-02-01T01:32:55.358Z,0.00
2023-02-01T01:33:55.370Z,0.00
2023-02-01T01:34:55.310Z,0.00
2023-02-01T01:35:55.296Z,0.00
2023-02-01T01:36:55.316Z,0.00
2023-02-01T01:37:55.324Z,0.00
2023-02-01T01:38:55.293Z,0.00
2023-02-01T01:39:55.255Z,0.00
2023-02-01T01:40:55.242Z,0.00
2023-02-01T01:41:55.248Z,0.00
2023-02-01T01:42:55.264Z,0.00
2023-02-01T01:43:55.219Z,0.00
2023-02-01T01:44:55.196Z,0.00
2023-02-01T01:45:55.197Z,0.00
2023-02-01T01:46:55.224Z,0.00
2023-02-01T01:47:55.168Z,0.00
2023-02-01T01:48:55.186Z,0.00
2023-02-01T01:49:55.161Z,0.00
2023-02-01T01:50:55.138Z,0.00
2023-02-01T01:51:55.140Z,0.00
2023-02-01T01:52:55.114Z,0.00
2023-02-01T01:53:55.107Z,0.00
2023-02-01T01:54:55.112Z,0.00
2023-02-01T01:55:55.190Z,0.00
2023-02-01T01:56:55.117Z,0.00
2023-02-01T01:57:55.084Z,0.00
2023-02-01T01:58:55.053Z,0.00
2023-02-01T01:59:55.086Z,0.00
2023-02-01T02:00:55.121Z,0.00
2023-02-01T02:01:55.052Z,0.00
2023-02-01T02:02:55.013Z,0.00
2023-02-01T02:03:55.053Z,0.00
2023-02-01T02:04:55.003Z,0.00
2023-02-01T02:05:54.993Z,0.00
2023-02-01T02:06:55.016Z,0.00
2023-02-01T02:07:54.966Z,0.00
2023-02-01T02:08:54.944Z,0.00
2023-02-01T02:10:00.826Z,0.00
2023-02-01T02:10:55.956Z,0.00
2023-02-01T02:11:54.938Z,0.00
2023-02-01T02:12:54.899Z,0.00
2023-02-01T02:13:54.929Z,0.00
2023-02-01T02:14:54.879Z,0.00
2023-02-01T02:15:54.867Z,0.00
2023-02-01T02:16:54.874Z,0.00
2023-02-01T02:17:54.843Z,0.00
2023-02-01T02:18:54.836Z,0.00
2023-02-01T02:19:54.830Z,0.00
2023-02-01T02:20:54.832Z,0.00
2023-02-01T02:21:54.826Z,0.00
2023-02-01T02:22:54.790Z,0.00
2023-02-01T02:23:54.791Z,0.00
2023-02-01T02:24:54.818Z,0.00
2023-02-01T02:25:54.761Z,0.00
2023-02-01T02:26:54.764Z,0.00
2023-02-01T02:27:54.735Z,0.00
2023-02-01T02:28:54.722Z,0.00
2023-02-01T02:29:54.718Z,0.00
2023-02-01T02:30:54.763Z,0.00
2023-02-01T02:31:54.792Z,0.00
2023-02-01T02:32:54.682Z,0.00
2023-02-01T02:33:54.673Z,0.00
2023-02-01T02:34:54.662Z,0.00
2023-02-01T02:35:54.653Z,0.00
2023-02-01T02:36:54.677Z,0.00
2023-02-01T02:37:54.683Z,0.00
2023-02-01T02:38:54.618Z,0.00
2023-02-01T02:39:54.608Z,0.00
2023-02-01T02:40:54.595Z,0.00
2023-02-01T02:41:54.609Z,0.00
2023-02-01T02:42:55.032Z,0.00
2023-02-01T02:43:54.588Z,0.00
2023-02-01T02:44:54.576Z,0.00
2023-02-01T02:45:54.638Z,0.00
2023-02-01T02:46:54.588Z,0.00
2023-02-01T02:47:54.542Z,0.00
2023-02-01T02:48:54.519Z,0.00
2023-02-01T02:49:54.516Z,0.00
2023-02-01T02:50:54.509Z,0.00
2023-02-01T02:51:54.521Z,0.00
2023-02-01T02:52:54.509Z,0.00
2023-02-01T02:53:54.479Z,0.00
2023-02-01T02:54:54.636Z,0.00
2023-02-01T02:55:54.452Z,0.00
2023-02-01T02:56:54.432Z,0.00
2023-02-01T02:57:54.457Z,0.00
2023-02-01T02:58:54.412Z,0.00
2023-02-01T02:59:54.413Z,0.00
2023-02-01T03:00:54.433Z,0.00
2023-02-01T03:01:54.410Z,0.00
2023-02-01T03:02:54.457Z,0.00
2023-02-01T03:03:54.366Z,0.00
2023-02-01T03:04:54.355Z,0.00
2023-02-01T03:05:54.375Z,0.00
2023-02-01T03:06:54.526Z,0.00
2023-02-01T03:07:54.371Z,0.00
2023-02-01T03:08:54.430Z,0.00
2023-02-01T03:09:54.292Z,0.00
2023-02-01T03:10:54.296Z,0.00
2023-02-01T03:11:54.292Z,0.00
2023-02-01T03:12:54.275Z,0.00
2023-02-01T03:13:54.262Z,0.00
2023-02-01T03:14:54.278Z,0.00
2023-02-01T03:15:54.244Z,0.00
2023-02-01T03:16:54.308Z,0.00
2023-02-01T03:17:54.220Z,0.00
2023-02-01T03:18:54.208Z,0.00
2023-02-01T03:19:54.195Z,0.00
2023-02-01T03:20:54.192Z,0.00
2023-02-01T03:21:56.055Z,0.00
2023-02-01T03:22:54.187Z,0.00
2023-02-01T03:23:54.158Z,0.00
2023-02-01T03:24:54.155Z,0.00
2023-02-01T03:25:54.135Z,0.00
2023-02-01T03:26:54.136Z,0.00
2023-02-01T03:27:54.110Z,0.00
2023-02-01T03:28:54.097Z,0.00
2023-02-01T03:29:54.109Z,0.00
2023-02-01T03:30:54.148Z,0.00
2023-02-01T03:31:54.142Z,0.00
2023-02-01T03:32:54.061Z,0.00
2023-02-01T03:33:54.046Z,0.00
2023-02-01T03:34:54.046Z,0.00
2023-02-01T03:35:54.011Z,0.00
2023-02-01T03:36:54.024Z,0.00
2023-02-01T03:37:54.024Z,0.00
2023-02-01T03:38:53.997Z,0.00
2023-02-01T03:39:53.980Z,0.00
2023-02-01T03:40:54.004Z,0.00
2023-02-01T03:41:53.994Z,0.00
2023-02-01T03:42:53.954Z,0.00
2023-02-01T03:43:53.932Z,0.00
2023-02-01T03:44:53.926Z,0.00
2023-02-01T03:45:53.954Z,0.00
2023-02-01T03:46:53.976Z,0.00
2023-02-01T03:47:53.904Z,0.00
2023-02-01T03:48:53.907Z,0.00
2023-02-01T03:49:53.886Z,0.00
2023-02-01T03:50:53.867Z,0.00
2023-02-01T03:51:53.934Z,0.00
2023-02-01T03:52:53.850Z,0.00
2023-02-01T03:53:53.835Z,0.00
2023-02-01T03:54:53.828Z,0.00
2023-02-01T03:55:53.844Z,0.00
2023-02-01T03:56:53.830Z,0.00
2023-02-01T03:57:53.789Z,0.00
2023-02-01T03:58:53.773Z,0.00
2023-02-01T03:59:53.766Z,0.00
2023-02-01T04:00:53.792Z,0.00
2023-02-01T04:01:53.761Z,0.00
2023-02-01T04:02:53.735Z,0.00
2023-02-01T04:03:53.753Z,0.00
2023-02-01T04:04:53.729Z,0.00
2023-02-01T04:05:53.705Z,0.00
2023-02-01T04:06:53.707Z,0.00
2023-02-01T04:07:53.684Z,0.00
2023-02-01T04:08:53.685Z,0.00
2023-02-01T04:09:53.710Z,0.00
2023-02-01T04:10:53.684Z,0.00
2023-02-01T04:11:53.691Z,0.00
2023-02-01T04:12:53.643Z,0.00
2023-02-01T04:13:53.619Z,0.00
2023-02-01T04:14:53.630Z,0.00
2023-02-01T04:15:53.600Z,0.00
2023-02-01T04:16:53.625Z,0.00
2023-02-01T04:17:53.599Z,0.00
2023-02-01T04:18:53.579Z,0.00
2023-02-01T04:19:55.465Z,0.00
2023-02-01T04:20:53.594Z,0.00
2023-02-01T04:21:53.546Z,0.00
2023-02-01T04:22:53.530Z,0.00
2023-02-01T04:23:53.504Z,0.00
2023-02-01T04:24:53.522Z,0.00
2023-02-01T04:25:53.488Z,0.00
2023-02-01T04:26:53.541Z,0.00
2023-02-01T04:27:53.470Z,0.00
2023-02-01T04:28:53.465Z,0.00
2023-02-01T04:29:53.437Z,0.00
2023-02-01T04:30:53.506Z,0.00
2023-02-01T04:31:53.526Z,0.00
2023-02-01T04:32:53.439Z,0.00
2023-02-01T04:33:53.395Z,0.00
2023-02-01T04:34:53.391Z,0.00
2023-02-01T04:35:53.392Z,0.00
2023-02-01T04:36:53.377Z,0.00
2023-02-01T04:37:53.354Z,0.00
2023-02-01T04:38:53.349Z,0.00
2023-02-01T04:39:53.337Z,0.00
2023-02-01T04:40:53.319Z,0.00
2023-02-01T04:41:53.349Z,0.00
2023-02-01T04:42:53.305Z,0.00
2023-02-01T04:43:53.365Z,0.00
2023-02-01T04:44:53.300Z,0.00
2023-02-01T04:45:53.345Z,0.00
2023-02-01T04:46:53.271Z,0.00
2023-02-01T04:47:53.256Z,0.00
2023-02-01T04:48:53.249Z,0.00
2023-02-01T04:49:53.392Z,0.00
2023-02-01T04:50:53.227Z,0.00
2023-02-01T04:51:53.355Z,0.00
2023-02-01T04:52:53.215Z,0.00
2023-02-01T04:53:53.271Z,0.00
2023-02-01T04:54:53.240Z,0.00
2023-02-01T04:55:53.158Z,0.00
2023-02-01T04:56:53.174Z,0.00
2023-02-01T04:57:53.142Z,0.00
2023-02-01T04:58:53.134Z,0.00
2023-02-01T04:59:53.132Z,0.00
2023-02-01T05:00:53.125Z,0.00
2023-02-01T05:01:53.121Z,0.00
2023-02-01T05:02:53.085Z,0.00
2023-02-01T05:03:53.075Z,0.00
2023-02-01T05:04:53.143Z,0.00
2023-02-01T05:05:53.061Z,0.00
2023-02-01T05:06:53.070Z,0.00
2023-02-01T05:07:53.064Z,0.00
2023-02-01T05:08:53.024Z,0.00
2023-02-01T05:09:53.009Z,0.00
2023-02-01T05:10:53.001Z,0.00
2023-02-01T05:11:53.014Z,0.00
2023-02-01T05:12:53.003Z,0.00
2023-02-01T05:13:52.969Z,0.00
2023-02-01T05:14:52.974Z,0.00
2023-02-01T05:15:53.056Z,0.00
2023-02-01T05:16:52.957Z,0.00
2023-02-01T05:17:52.951Z,0.00
2023-02-01T05:18:52.920Z,0.00
2023-02-01T05:19:52.906Z,0.00
2023-02-01T05:20:52.914Z,0.00
2023-02-01T05:21:52.890Z,0.00
2023-02-01T05:22:52.939Z,0.00
2023-02-01T05:23:52.870Z,0.00
2023-02-01T05:24:52.855Z,0.00
2023-02-01T05:25:52.844Z,0.00
2023-02-01T05:26:52.895Z,0.00
2023-02-01T05:27:53.514Z,0.00
2023-02-01T05:28:52.807Z,0.00
2023-02-01T05:29:52.800Z,0.00
2023-02-01T05:30:52.893Z,0.00
2023-02-01T05:31:52.967Z,0.00
2023-02-01T05:32:52.801Z,0.00
2023-02-01T05:33:52.758Z,0.00
2023-02-01T05:34:52.751Z,0.00
2023-02-01T05:35:52.745Z,0.00
2023-02-01T05:36:52.742Z,0.00
2023-02-01T05:37:52.717Z,0.00
2023-02-01T05:38:52.708Z,0.00
2023-02-01T05:39:52.697Z,0.00
2023-02-01T05:40:52.686Z,0.00
2023-02-01T05:41:52.713Z,0.00
2023-02-01T05:42:52.676Z,0.00
2023-02-01T05:43:52.670Z,0.00
2023-02-01T05:44:52.692Z,0.00
2023-02-01T05:45:52.637Z,0.00
2023-02-01T05:46:52.679Z,0.00
2023-02-01T05:47:52.660Z,0.00
2023-02-01T05:48:52.636Z,0.00
2023-02-01T05:49:52.595Z,0.00
2023-02-01T05:50:52.579Z,0.00
2023-02-01T05:51:52.640Z,0.00
2023-02-01T05:52:52.575Z,0.00
2023-02-01T05:53:52.554Z,0.00
2023-02-01T05:54:52.530Z,0.00
2023-02-01T05:55:52.534Z,0.00
2023-02-01T05:56:52.526Z,0.00
2023-02-01T05:57:52.538Z,0.00
2023-02-01T05:58:52.505Z,0.00
2023-02-01T05:59:52.479Z,0.00
2023-02-01T06:00:52.467Z,0.00
2023-02-01T06:01:52.469Z,0.00
2023-02-01T06:02:52.576Z,0.00
2023-02-01T06:03:52.468Z,0.00
2023-02-01T06:04:52.456Z,0.00
2023-02-01T06:05:52.414Z,0.00
2023-02-01T06:06:52.408Z,0.00
2023-02-01T06:07:52.419Z,0.00
2023-02-01T06:08:52.381Z,0.00
2023-02-01T06:09:52.378Z,0.00
2023-02-01T06:10:52.369Z,0.00
2023-02-01T06:11:52.356Z,0.00
2023-02-01T06:12:52.426Z,0.00
2023-02-01T06:13:52.373Z,0.00
2023-02-01T06:14:52.320Z,0.00
2023-02-01T06:15:52.415Z,0.00
2023-02-01T06:16:52.303Z,0.00
2023-02-01T06:17:52.297Z,0.00
2023-02-01T06:18:52.305Z,0.00
2023-02-01T06:19:52.316Z,0.00
2023-02-01T06:20:52.278Z,0.00
2023-02-01T06:21:52.245Z,0.00
2023-02-01T06:22:52.241Z,0.00
2023-02-01T06:23:52.234Z,0.00
2023-02-01T06:24:52.231Z,0.00
2023-02-01T06:25:52.235Z,0.00
2023-02-01T06:26:52.233Z,0.00
2023-02-01T06:27:52.187Z,0.00
2023-02-01T06:28:52.171Z,0.00
2023-02-01T06:29:52.248Z,0.00
2023-02-01T06:30:52.230Z,0.00
2023-02-01T06:31:52.211Z,0.00
2023-02-01T06:32:52.153Z,0.00
2023-02-01T06:33:52.131Z,0.00
2023-02-01T06:34:52.111Z,0.00
2023-02-01T06:35:52.118Z,0.00
2023-02-01T06:36:52.109Z,0.00
2023-02-01T06:37:52.171Z,0.00
2023-02-01T06:38:52.074Z,0.00
2023-02-01T06:39:52.066Z,0.00
2023-02-01T06:40:52.049Z,0.00
2023-02-01T06:41:52.031Z,0.00
2023-02-01T06:42:52.047Z,0.00
2023-02-01T06:43:52.062Z,0.00
2023-02-01T06:44:52.036Z,0.00
2023-02-01T06:45:51.992Z,0.00
2023-02-01T06:46:52.007Z,0.00
2023-02-01T06:47:51.999Z,0.00
2023-02-01T06:48:51.981Z,0.00
2023-02-01T06:49:51.948Z,0.00
2023-02-01T06:50:51.967Z,0.00
2023-02-01T06:51:51.928Z,0.00
2023-02-01T06:52:51.979Z,0.00
2023-02-01T06:53:51.914Z,0.00
2023-02-01T06:54:51.897Z,0.00
2023-02-01T06:55:51.884Z,0.00
2023-02-01T06:56:51.873Z,0.00
2023-02-01T06:57:51.910Z,0.00
2023-02-01T06:58:51.855Z,0.00
2023-02-01T06:59:51.842Z,0.00
2023-02-01T07:00:51.869Z,5.62
2023-02-01T07:01:51.905Z,5.62
2023-02-01T07:02:51.842Z,5.62
2023-02-01T07:03:51.865Z,5.62
2023-02-01T07:04:51.787Z,5.62
2023-02-01T07:05:51.777Z,11.25
2023-02-01T07:06:51.765Z,11.25
2023-02-01T07:07:51.774Z,11.25
2023-02-01T07:08:51.806Z,11.25
2023-02-01T07:09:51.780Z,11.25
2023-02-01T07:10:51.723Z,11.25
2023-02-01T07:11:51.720Z,11.25
2023-02-01T07:12:51.723Z,11.25
2023-02-01T07:13:51.698Z,11.25
2023-02-01T07:14:51.725Z,11.25
2023-02-01T07:15:51.888Z,11.25
2023-02-01T07:16:51.660Z,11.25
2023-02-01T07:17:51.683Z,16.88
2023-02-01T07:18:51.638Z,22.50
2023-02-01T07:19:51.655Z,28.12
2023-02-01T07:20:51.640Z,28.12
2023-02-01T07:21:51.608Z,33.75
2023-02-01T07:22:51.621Z,39.38
2023-02-01T07:23:51.589Z,50.62
2023-02-01T07:24:51.651Z,61.88
2023-02-01T07:25:51.564Z,61.88
2023-02-01T07:26:51.645Z,56.25
2023-02-01T07:27:51.563Z,45.00
2023-02-01T07:28:51.532Z,45.00
2023-02-01T07:29:51.536Z,39.38
2023-02-01T07:30:51.598Z,28.12
2023-02-01T07:31:51.510Z,28.12
2023-02-01T07:32:51.562Z,28.12
2023-02-01T07:33:51.478Z,28.12
2023-02-01T07:34:51.466Z,28.12
2023-02-01T07:35:51.471Z,33.75
2023-02-01T07:36:51.446Z,33.75
2023-02-01T07:37:51.464Z,33.75
2023-02-01T07:38:51.423Z,33.75
2023-02-01T07:39:51.414Z,28.12
2023-02-01T07:40:51.435Z,33.75
2023-02-01T07:41:51.392Z,33.75
2023-02-01T07:42:51.403Z,39.38
2023-02-01T07:43:51.373Z,39.38
2023-02-01T07:44:51.371Z,39.38
2023-02-01T07:45:51.387Z,39.38
2023-02-01T07:46:51.352Z,39.38
2023-02-01T07:47:51.351Z,45.00
2023-02-01T07:48:51.323Z,45.00
2023-02-01T07:49:51.342Z,50.62
2023-02-01T07:50:51.302Z,50.62
2023-02-01T07:51:51.285Z,56.25
2023-02-01T07:52:51.303Z,56.25
2023-02-01T07:53:51.274Z,56.25
2023-02-01T07:54:51.281Z,67.50
2023-02-01T07:55:51.256Z,84.38
2023-02-01T07:56:51.259Z,101.25
2023-02-01T07:57:51.239Z,112.50
2023-02-01T07:58:51.216Z,118.12
2023-02-01T07:59:51.209Z,129.38
2023-02-01T08:00:51.210Z,129.38
2023-02-01T08:01:51.211Z,123.75
2023-02-01T08:02:51.205Z,118.12
2023-02-01T08:03:51.156Z,118.12
2023-02-01T08:04:51.145Z,106.88
2023-02-01T08:05:51.133Z,101.25
2023-02-01T08:06:51.124Z,95.62
2023-02-01T08:07:51.128Z,95.62
2023-02-01T08:08:51.101Z,95.62
2023-02-01T08:09:51.104Z,90.00
2023-02-01T08:10:51.081Z,95.62
2023-02-01T08:11:51.072Z,106.88
2023-02-01T08:12:51.105Z,112.50
2023-02-01T08:13:51.058Z,106.88
2023-02-01T08:14:51.060Z,101.25
2023-02-01T08:15:51.068Z,101.25
2023-02-01T08:16:51.083Z,95.62
2023-02-01T08:17:51.028Z,101.25
2023-02-01T08:18:50.996Z,95.62
2023-02-01T08:19:50.995Z,90.00
2023-02-01T08:20:50.977Z,101.25
2023-02-01T08:21:51.003Z,118.12
2023-02-01T08:22:53.206Z,135.00
2023-02-01T08:23:50.952Z,174.38
2023-02-01T08:24:50.931Z,208.12
2023-02-01T08:25:50.929Z,230.62
2023-02-01T08:26:50.942Z,230.62
2023-02-01T08:27:50.980Z,213.75
2023-02-01T08:28:50.919Z,191.25
2023-02-01T08:29:50.917Z,163.12
2023-02-01T08:30:50.899Z,157.50
2023-02-01T08:31:50.943Z,168.75
2023-02-01T08:32:50.871Z,174.38
2023-02-01T08:33:50.840Z,163.12
2023-02-01T08:34:50.866Z,146.25
2023-02-01T08:35:50.896Z,123.75
2023-02-01T08:36:50.812Z,112.50
2023-02-01T08:37:50.829Z,106.88
2023-02-01T08:38:50.796Z,118.12
2023-02-01T08:39:50.786Z,123.75
2023-02-01T08:40:50.816Z,118.12
2023-02-01T08:41:50.752Z,112.50
2023-02-01T08:42:50.770Z,101.25
2023-02-01T08:43:50.736Z,95.62
2023-02-01T08:44:50.760Z,95.62
2023-02-01T08:45:50.787Z,95.62
2023-02-01T08:46:50.847Z,84.38
2023-02-01T08:47:50.756Z,84.38
2023-02-01T08:48:50.676Z,78.75
2023-02-01T08:49:50.685Z,73.12
2023-02-01T08:50:50.703Z,67.50
2023-02-01T08:51:50.647Z,56.25
2023-02-01T08:52:50.662Z,50.62
2023-02-01T08:53:50.691Z,39.38
2023-02-01T08:54:50.618Z,33.75
2023-02-01T08:55:50.625Z,33.75
2023-02-01T08:56:50.634Z,39.38
2023-02-01T08:57:50.609Z,39.38
2023-02-01T08:58:50.572Z,45.00
2023-02-01T08:59:50.575Z,56.25
2023-02-01T09:00:50.705Z,67.50
2023-02-01T09:01:50.544Z,73.12
2023-02-01T09:02:50.564Z,78.75
2023-02-01T09:03:50.650Z,95.62
2023-02-01T09:04:50.528Z,140.62
2023-02-01T09:05:51.088Z,168.75
2023-02-01T09:06:50.500Z,168.75
2023-02-01T09:07:50.507Z,140.62
2023-02-01T09:08:50.513Z,163.12
2023-02-01T09:09:50.473Z,213.75
2023-02-01T09:10:50.460Z,241.88
2023-02-01T09:11:50.438Z,275.62
2023-02-01T09:12:50.455Z,292.50
2023-02-01T09:13:50.499Z,292.50
2023-02-01T09:14:50.478Z,292.50
2023-02-01T09:15:50.445Z,275.62
2023-02-01T09:16:50.403Z,270.00
2023-02-01T09:17:50.394Z,270.00
2023-02-01T09:18:56.098Z,270.00
2023-02-01T09:19:51.351Z,292.50
2023-02-01T09:20:50.339Z,309.38
2023-02-01T09:21:50.358Z,331.88
2023-02-01T09:22:50.347Z,365.62
2023-02-01T09:23:50.320Z,399.38
2023-02-01T09:24:50.385Z,410.62
2023-02-01T09:25:50.288Z,393.75
2023-02-01T09:26:50.363Z,360.00
2023-02-01T09:27:50.332Z,365.62
2023-02-01T09:28:50.259Z,382.50
2023-02-01T09:29:50.252Z,376.88
2023-02-01T09:30:50.341Z,388.12
2023-02-01T09:32:03.004Z,444.38
2023-02-01T09:32:51.320Z,500.62
2023-02-01T09:33:50.211Z,556.88
2023-02-01T09:34:50.213Z,652.50
2023-02-01T09:35:50.186Z,669.38
2023-02-01T09:36:50.174Z,658.12
2023-02-01T09:37:50.212Z,703.12
2023-02-01T09:38:53.579Z,596.25
2023-02-01T09:39:50.171Z,489.38
2023-02-01T09:40:50.193Z,433.12
2023-02-01T09:41:50.114Z,405.00
2023-02-01T09:42:50.128Z,388.12
2023-02-01T09:43:50.107Z,399.38
2023-02-01T09:44:50.107Z,472.50
2023-02-01T09:45:50.175Z,472.50
2023-02-01T09:46:50.071Z,551.25
2023-02-01T09:47:50.077Z,821.25
2023-02-01T09:48:50.107Z,500.62
2023-02-01T09:49:50.069Z,646.88
2023-02-01T09:50:50.021Z,466.88
2023-02-01T09:51:50.014Z,478.12
2023-02-01T09:52:50.039Z,472.50
2023-02-01T09:53:49.986Z,523.12
2023-02-01T09:54:49.981Z,500.62
2023-02-01T09:55:50.004Z,624.38
2023-02-01T09:56:49.957Z,534.38
2023-02-01T09:57:49.981Z,511.88
2023-02-01T09:58:49.957Z,528.75
2023-02-01T09:59:49.920Z,495.00
2023-02-01T10:00:49.917Z,489.38
2023-02-01T10:01:49.984Z,534.38
2023-02-01T10:02:49.908Z,1389.38
2023-02-01T10:03:50.008Z,877.50
2023-02-01T10:04:49.962Z,562.50
2023-02-01T10:05:49.887Z,556.88
2023-02-01T10:06:49.848Z,517.50
2023-02-01T10:07:49.881Z,500.62
2023-02-01T10:08:49.848Z,506.25
2023-02-01T10:09:49.825Z,495.00
2023-02-01T10:10:49.853Z,472.50
2023-02-01T10:11:49.791Z,478.12
2023-02-01T10:12:49.804Z,466.88
2023-02-01T10:13:49.870Z,444.38
2023-02-01T10:14:49.771Z,438.75
2023-02-01T10:15:49.823Z,421.88
2023-02-01T10:16:49.871Z,427.50
2023-02-01T10:17:49.743Z,421.88
2023-02-01T10:18:49.725Z,433.12
2023-02-01T10:19:49.749Z,433.12
2023-02-01T10:20:49.727Z,410.62
2023-02-01T10:21:49.688Z,393.75
2023-02-01T10:23:13.761Z,399.38
2023-02-01T10:23:50.672Z,376.88
2023-02-01T10:24:49.671Z,354.38
2023-02-01T10:25:49.659Z,326.25
2023-02-01T10:26:49.723Z,320.62
2023-02-01T10:27:49.676Z,320.62
2023-02-01T10:28:49.618Z,348.75
2023-02-01T10:29:49.608Z,382.50
2023-02-01T10:30:49.670Z,410.62
2023-02-01T10:31:49.720Z,438.75
2023-02-01T10:32:49.609Z,438.75
2023-02-01T10:33:49.650Z,483.75
2023-02-01T10:34:49.559Z,466.88
2023-02-01T10:35:49.540Z,455.62
2023-02-01T10:36:49.550Z,450.00
2023-02-01T10:37:49.558Z,444.38
2023-02-01T10:38:49.504Z,444.38
2023-02-01T10:39:49.502Z,416.25
2023-02-01T10:40:49.518Z,371.25
2023-02-01T10:41:49.500Z,343.12
2023-02-01T10:42:49.512Z,326.25
2023-02-01T10:43:49.471Z,298.12
2023-02-01T10:44:49.448Z,275.62
2023-02-01T10:45:49.472Z,241.88
2023-02-01T10:46:49.475Z,213.75
2023-02-01T10:47:49.429Z,208.12
2023-02-01T10:48:49.410Z,208.12
2023-02-01T10:49:49.429Z,208.12
2023-02-01T10:50:49.400Z,191.25
2023-02-01T10:51:49.441Z,202.50
2023-02-01T10:52:49.388Z,202.50
2023-02-01T10:53:49.340Z,213.75
2023-02-01T10:54:49.338Z,208.12
2023-02-01T10:55:49.333Z,191.25
2023-02-01T10:56:49.445Z,191.25
2023-02-01T10:57:49.346Z,180.00
2023-02-01T10:58:49.298Z,180.00
2023-02-01T10:59:49.330Z,151.88
2023-02-01T11:00:49.316Z,146.25
2023-02-01T11:01:49.355Z,151.88
2023-02-01T11:02:49.246Z,157.50
2023-02-01T11:03:49.253Z,180.00
2023-02-01T11:04:49.241Z,241.88
2023-02-01T11:05:49.211Z,253.12
2023-02-01T11:06:49.204Z,241.88
2023-02-01T11:07:49.219Z,253.12
2023-02-01T11:08:49.297Z,225.00
2023-02-01T11:09:49.335Z,208.12
2023-02-01T11:10:49.158Z,202.50
2023-02-01T11:11:49.153Z,202.50
2023-02-01T11:12:49.178Z,225.00
2023-02-01T11:13:49.142Z,236.25
2023-02-01T11:14:49.173Z,236.25
2023-02-01T11:15:49.141Z,270.00
2023-02-01T11:16:49.103Z,292.50
2023-02-01T11:17:49.198Z,315.00
2023-02-01T11:18:49.175Z,337.50
2023-02-01T11:19:49.063Z,343.12
2023-02-01T11:20:49.052Z,354.38
2023-02-01T11:21:49.057Z,376.88
2023-02-01T11:22:49.061Z,376.88
2023-02-01T11:23:49.065Z,371.25
2023-02-01T11:24:49.072Z,371.25
2023-02-01T11:25:49.008Z,371.25
2023-02-01T11:26:49.151Z,365.62
2023-02-01T11:27:54.826Z,371.25
2023-02-01T11:28:49.969Z,399.38
2023-02-01T11:29:48.963Z,438.75
2023-02-01T11:30:49.008Z,450.00
2023-02-01T11:31:48.976Z,450.00
2023-02-01T11:32:48.953Z,455.62
2023-02-01T11:33:48.956Z,450.00
2023-02-01T11:34:48.943Z,455.62
2023-02-01T11:35:48.954Z,450.00
2023-02-01T11:36:48.903Z,438.75
2023-02-01T11:37:48.882Z,427.50
2023-02-01T11:38:48.873Z,433.12
2023-02-01T11:39:48.846Z,461.25
2023-02-01T11:40:48.859Z,489.38
2023-02-01T11:41:48.867Z,489.38
2023-02-01T11:42:48.851Z,483.75
2023-02-01T11:43:48.815Z,466.88
2023-02-01T11:44:48.936Z,461.25
2023-02-01T11:45:48.913Z,433.12
2023-02-01T11:46:48.804Z,444.38
2023-02-01T11:47:48.798Z,461.25
2023-02-01T11:48:48.779Z,472.50
2023-02-01T11:49:48.778Z,478.12
2023-02-01T11:50:48.739Z,495.00
2023-02-01T11:51:48.775Z,511.88
2023-02-01T11:52:48.806Z,506.25
2023-02-01T11:53:49.057Z,495.00
2023-02-01T11:54:48.737Z,472.50
2023-02-01T11:55:48.717Z,450.00
2023-02-01T11:56:48.681Z,444.38
2023-02-01T11:57:48.685Z,427.50
2023-02-01T11:58:48.693Z,410.62
2023-02-01T11:59:56.287Z,393.75
2023-02-01T12:00:49.623Z,410.62
2023-02-01T12:01:48.725Z,450.00
2023-02-01T12:02:48.926Z,483.75
2023-02-01T12:03:48.640Z,472.50
2023-02-01T12:04:48.602Z,438.75
2023-02-01T12:05:48.568Z,410.62
2023-02-01T12:06:48.569Z,376.88
2023-02-01T12:07:48.605Z,365.62
2023-02-01T12:08:48.537Z,360.00
2023-02-01T12:09:48.540Z,331.88
2023-02-01T12:10:48.586Z,337.50
2023-02-01T12:11:48.626Z,354.38
2023-02-01T12:12:48.533Z,354.38
2023-02-01T12:13:48.487Z,348.75
2023-02-01T12:14:48.584Z,343.12
2023-02-01T12:15:48.603Z,320.62
2023-02-01T12:16:48.588Z,315.00
2023-02-01T12:17:48.441Z,309.38
2023-02-01T12:18:48.518Z,298.12
2023-02-01T12:19:48.499Z,292.50
2023-02-01T12:20:48.429Z,281.25
2023-02-01T12:21:48.569Z,258.75
2023-02-01T12:22:48.403Z,241.88
2023-02-01T12:23:48.376Z,230.62
2023-02-01T12:24:48.384Z,236.25
2023-02-01T12:25:48.446Z,230.62
2023-02-01T12:26:48.406Z,230.62
2023-02-01T12:27:48.367Z,208.12
2023-02-01T12:28:48.410Z,180.00
2023-02-01T12:29:48.380Z,180.00
2023-02-01T12:30:48.483Z,191.25
2023-02-01T12:31:48.428Z,191.25
2023-02-01T12:32:48.293Z,202.50
2023-02-01T12:33:48.277Z,208.12
2023-02-01T12:34:48.286Z,191.25
2023-02-01T12:35:48.250Z,174.38
2023-02-01T12:36:48.236Z,163.12
2023-02-01T12:37:48.403Z,168.75
2023-02-01T12:38:48.337Z,191.25
2023-02-01T12:39:48.202Z,208.12
2023-02-01T12:40:48.193Z,230.62
2023-02-01T12:41:48.230Z,241.88
2023-02-01T12:42:48.185Z,247.50
2023-02-01T12:43:48.162Z,253.12
2023-02-01T12:44:48.282Z,258.75
2023-02-01T12:45:48.243Z,286.88
2023-02-01T12:46:48.265Z,309.38
2023-02-01T12:47:51.698Z,292.50
2023-02-01T12:48:48.104Z,281.25
2023-02-01T12:49:48.095Z,275.62
2023-02-01T12:50:48.104Z,286.88
2023-02-01T12:51:48.085Z,292.50
2023-02-01T12:52:48.076Z,264.38
2023-02-01T12:53:48.159Z,236.25
2023-02-01T12:54:48.050Z,219.38
2023-02-01T12:55:49.908Z,202.50
2023-02-01T12:56:48.322Z,196.88
2023-02-01T12:57:48.030Z,230.62